sensor_id;sensor_type;location;lat;lon;timestamp;P1;durP1;ratioP1;P2;durP2;ratioP2
53040;SDS011;39326;42.650;23.248;2023-07-31T00:01:53;4.40;;;4.00;;
53040;SDS011;39326;42.650;23.248;2023-07-31T00:04:19;4.38;;;4.03;;
53040;SDS011;39326;42.650;23.248;2023-07-31T00:06:44;3.97;;;3.67;;
53040;SDS011;39326;42.650;23.248;2023-07-31T00:09:10;3.55;;;3.35;;
53040;SDS011;39326;42.650;23.248;2023-07-31T00:11:35;4.03;;;3.72;;
53040;SDS011;39326;42.650;23.248;2023-07-31T00:14:01;4.38;;;4.00;;
53040;SDS011;39326;42.650;23.248;2023-07-31T00:16:26;4.38;;;4.07;;
53040;SDS011;39326;42.650;23.248;2023-07-31T00:18:52;4.93;;;4.50;;
53040;SDS011;39326;42.650;23.248;2023-07-31T00:21:17;4.50;;;4.10;;
53040;SDS011;39326;42.650;23.248;2023-07-31T00:23:43;4.03;;;3.72;;
53040;SDS011;39326;42.650;23.248;2023-07-31T00:26:08;5.07;;;4.78;;
53040;SDS011;39326;42.650;23.248;2023-07-31T00:28:33;4.60;;;4.30;;
53040;SDS011;39326;42.650;23.248;2023-07-31T00:30:59;5.05;;;4.75;;
53040;SDS011;39326;42.650;23.248;2023-07-31T00:33:24;5.22;;;4.82;;
53040;SDS011;39326;42.650;23.248;2023-07-31T00:35:50;5.53;;;5.13;;
53040;SDS011;39326;42.650;23.248;2023-07-31T00:38:15;5.00;;;4.70;;
53040;SDS011;39326;42.650;23.248;2023-07-31T00:40:40;5.28;;;4.88;;
53040;SDS011;39326;42.650;23.248;2023-07-31T00:43:06;5.70;;;5.28;;
53040;SDS011;39326;42.650;23.248;2023-07-31T00:45:31;5.50;;;5.10;;
53040;SDS011;39326;42.650;23.248;2023-07-31T00:47:57;5.93;;;5.63;;
53040;SDS011;39326;42.650;23.248;2023-07-31T00:50:24;7.50;;;7.00;;
53040;SDS011;39326;42.650;23.248;2023-07-31T00:52:50;8.18;;;7.68;;
53040;SDS011;39326;42.650;23.248;2023-07-31T00:55:15;8.55;;;7.95;;
53040;SDS011;39326;42.650;23.248;2023-07-31T00:57:42;9.98;;;9.27;;
53040;SDS011;39326;42.650;23.248;2023-07-31T01:00:08;11.55;;;10.65;;
53040;SDS011;39326;42.650;23.248;2023-07-31T01:02:34;12.05;;;11.25;;
53040;SDS011;39326;42.650;23.248;2023-07-31T01:05:00;11.23;;;10.52;;
53040;SDS011;39326;42.650;23.248;2023-07-31T01:07:29;13.13;;;12.07;;
53040;SDS011;39326;42.650;23.248;2023-07-31T01:12:29;15.65;;;14.60;;
53040;SDS011;39326;42.650;23.248;2023-07-31T01:15:05;16.27;;;15.18;;
53040;SDS011;39326;42.650;23.248;2023-07-31T01:17:35;17.13;;;16.02;;
53040;SDS011;39326;42.650;23.248;2023-07-31T01:20:02;17.40;;;16.17;;
53040;SDS011;39326;42.650;23.248;2023-07-31T01:28:08;19.67;;;18.38;;
53040;SDS011;39326;42.650;23.248;2023-07-31T01:30:40;20.85;;;19.35;;
53040;SDS011;39326;42.650;23.248;2023-07-31T01:33:08;22.75;;;21.17;;
53040;SDS011;39326;42.650;23.248;2023-07-31T01:35:34;24.23;;;22.48;;
53040;SDS011;39326;42.650;23.248;2023-07-31T01:38:01;25.88;;;23.95;;
53040;SDS011;39326;42.650;23.248;2023-07-31T01:40:26;27.02;;;25.10;;
53040;SDS011;39326;42.650;23.248;2023-07-31T01:42:52;24.88;;;23.13;;
53040;SDS011;39326;42.650;23.248;2023-07-31T01:45:17;26.67;;;24.77;;
53040;SDS011;39326;42.650;23.248;2023-07-31T01:47:43;26.40;;;24.50;;
53040;SDS011;39326;42.650;23.248;2023-07-31T01:50:08;26.13;;;24.33;;
53040;SDS011;39326;42.650;23.248;2023-07-31T01:52:34;27.05;;;25.13;;
53040;SDS011;39326;42.650;23.248;2023-07-31T01:54:59;27.70;;;25.70;;
53040;SDS011;39326;42.650;23.248;2023-07-31T01:57:25;24.77;;;23.08;;
53040;SDS011;39326;42.650;23.248;2023-07-31T01:59:50;27.42;;;25.48;;
53040;SDS011;39326;42.650;23.248;2023-07-31T02:02:18;24.67;;;22.98;;
53040;SDS011;39326;42.650;23.248;2023-07-31T02:04:44;29.13;;;27.08;;
53040;SDS011;39326;42.650;23.248;2023-07-31T02:07:09;28.30;;;26.20;;
53040;SDS011;39326;42.650;23.248;2023-07-31T02:09:35;25.02;;;23.23;;
53040;SDS011;39326;42.650;23.248;2023-07-31T02:12:00;26.33;;;24.52;;
53040;SDS011;39326;42.650;23.248;2023-07-31T02:14:25;26.00;;;24.10;;
53040;SDS011;39326;42.650;23.248;2023-07-31T02:16:51;26.77;;;24.88;;
53040;SDS011;39326;42.650;23.248;2023-07-31T02:19:16;27.00;;;25.15;;
53040;SDS011;39326;42.650;23.248;2023-07-31T02:21:41;25.88;;;23.98;;
53040;SDS011;39326;42.650;23.248;2023-07-31T02:24:07;25.38;;;23.48;;
53040;SDS011;39326;42.650;23.248;2023-07-31T02:26:32;26.38;;;24.58;;
53040;SDS011;39326;42.650;23.248;2023-07-31T02:28:58;23.02;;;21.27;;
53040;SDS011;39326;42.650;23.248;2023-07-31T02:31:23;25.58;;;23.77;;
53040;SDS011;39326;42.650;23.248;2023-07-31T02:33:48;27.38;;;25.48;;
53040;SDS011;39326;42.650;23.248;2023-07-31T02:36:14;27.10;;;25.20;;
53040;SDS011;39326;42.650;23.248;2023-07-31T02:38:39;27.02;;;25.13;;
53040;SDS011;39326;42.650;23.248;2023-07-31T02:41:05;26.38;;;24.58;;
53040;SDS011;39326;42.650;23.248;2023-07-31T02:43:31;25.98;;;24.17;;
53040;SDS011;39326;42.650;23.248;2023-07-31T02:45:56;28.15;;;26.17;;
53040;SDS011;39326;42.650;23.248;2023-07-31T02:48:21;26.23;;;24.33;;
53040;SDS011;39326;42.650;23.248;2023-07-31T02:50:47;24.10;;;22.42;;
53040;SDS011;39326;42.650;23.248;2023-07-31T02:53:13;28.40;;;26.38;;
53040;SDS011;39326;42.650;23.248;2023-07-31T02:55:38;25.48;;;23.58;;
53040;SDS011;39326;42.650;23.248;2023-07-31T02:58:04;22.33;;;20.50;;
53040;SDS011;39326;42.650;23.248;2023-07-31T03:00:29;26.35;;;24.35;;
53040;SDS011;39326;42.650;23.248;2023-07-31T03:02:55;26.00;;;24.23;;
53040;SDS011;39326;42.650;23.248;2023-07-31T03:05:20;26.40;;;24.55;;
53040;SDS011;39326;42.650;23.248;2023-07-31T03:07:46;26.98;;;25.08;;
53040;SDS011;39326;42.650;23.248;2023-07-31T03:10:11;26.02;;;24.33;;
53040;SDS011;39326;42.650;23.248;2023-07-31T03:12:37;25.55;;;23.75;;
53040;SDS011;39326;42.650;23.248;2023-07-31T03:15:02;23.90;;;22.20;;
53040;SDS011;39326;42.650;23.248;2023-07-31T03:17:28;25.27;;;23.48;;
53040;SDS011;39326;42.650;23.248;2023-07-31T03:19:53;29.23;;;27.02;;
53040;SDS011;39326;42.650;23.248;2023-07-31T03:22:19;27.35;;;25.30;;
53040;SDS011;39326;42.650;23.248;2023-07-31T03:24:44;27.00;;;25.02;;
53040;SDS011;39326;42.650;23.248;2023-07-31T03:27:09;28.48;;;26.38;;
53040;SDS011;39326;42.650;23.248;2023-07-31T03:29:35;29.30;;;27.08;;
53040;SDS011;39326;42.650;23.248;2023-07-31T03:32:00;28.52;;;26.35;;
53040;SDS011;39326;42.650;23.248;2023-07-31T03:34:26;27.92;;;25.83;;
53040;SDS011;39326;42.650;23.248;2023-07-31T03:36:51;26.40;;;24.50;;
53040;SDS011;39326;42.650;23.248;2023-07-31T03:39:16;27.23;;;25.17;;
53040;SDS011;39326;42.650;23.248;2023-07-31T03:41:42;29.00;;;26.75;;
53040;SDS011;39326;42.650;23.248;2023-07-31T03:44:07;28.20;;;25.92;;
53040;SDS011;39326;42.650;23.248;2023-07-31T03:46:33;29.73;;;27.52;;
53040;SDS011;39326;42.650;23.248;2023-07-31T03:48:58;27.77;;;25.58;;
53040;SDS011;39326;42.650;23.248;2023-07-31T03:51:24;30.27;;;27.98;;
53040;SDS011;39326;42.650;23.248;2023-07-31T03:53:49;29.48;;;27.25;;
53040;SDS011;39326;42.650;23.248;2023-07-31T03:56:15;26.23;;;24.30;;
53040;SDS011;39326;42.650;23.248;2023-07-31T03:58:40;28.05;;;26.02;;
53040;SDS011;39326;42.650;23.248;2023-07-31T04:01:06;29.80;;;27.55;;
53040;SDS011;39326;42.650;23.248;2023-07-31T04:03:31;28.90;;;26.70;;
53040;SDS011;39326;42.650;23.248;2023-07-31T04:05:56;27.95;;;25.75;;
53040;SDS011;39326;42.650;23.248;2023-07-31T04:08:22;29.83;;;27.55;;
53040;SDS011;39326;42.650;23.248;2023-07-31T04:10:48;27.27;;;25.27;;
53040;SDS011;39326;42.650;23.248;2023-07-31T04:13:14;29.58;;;27.15;;
53040;SDS011;39326;42.650;23.248;2023-07-31T04:15:39;27.65;;;25.63;;
53040;SDS011;39326;42.650;23.248;2023-07-31T04:18:05;28.27;;;26.00;;
53040;SDS011;39326;42.650;23.248;2023-07-31T04:20:30;28.60;;;26.40;;
53040;SDS011;39326;42.650;23.248;2023-07-31T04:22:56;27.77;;;25.58;;
53040;SDS011;39326;42.650;23.248;2023-07-31T04:25:21;26.75;;;24.70;;
53040;SDS011;39326;42.650;23.248;2023-07-31T04:27:47;27.67;;;25.58;;
53040;SDS011;39326;42.650;23.248;2023-07-31T04:30:12;25.42;;;23.35;;
53040;SDS011;39326;42.650;23.248;2023-07-31T04:32:37;24.85;;;22.95;;
53040;SDS011;39326;42.650;23.248;2023-07-31T04:35:03;24.23;;;22.42;;
53040;SDS011;39326;42.650;23.248;2023-07-31T04:37:28;24.75;;;22.83;;
53040;SDS011;39326;42.650;23.248;2023-07-31T04:39:54;23.88;;;22.08;;
53040;SDS011;39326;42.650;23.248;2023-07-31T04:42:19;23.08;;;21.38;;
53040;SDS011;39326;42.650;23.248;2023-07-31T04:44:45;22.58;;;20.88;;
53040;SDS011;39326;42.650;23.248;2023-07-31T04:47:10;21.77;;;19.98;;
53040;SDS011;39326;42.650;23.248;2023-07-31T04:49:35;22.95;;;21.25;;
53040;SDS011;39326;42.650;23.248;2023-07-31T04:52:01;21.33;;;19.83;;
53040;SDS011;39326;42.650;23.248;2023-07-31T04:54:27;20.17;;;18.67;;
53040;SDS011;39326;42.650;23.248;2023-07-31T04:56:52;20.27;;;18.88;;
53040;SDS011;39326;42.650;23.248;2023-07-31T04:59:18;21.30;;;19.80;;
53040;SDS011;39326;42.650;23.248;2023-07-31T05:01:43;20.60;;;19.15;;
53040;SDS011;39326;42.650;23.248;2023-07-31T05:04:12;19.45;;;18.05;;
53040;SDS011;39326;42.650;23.248;2023-07-31T05:06:39;22.13;;;20.52;;
53040;SDS011;39326;42.650;23.248;2023-07-31T05:09:04;17.92;;;16.63;;
53040;SDS011;39326;42.650;23.248;2023-07-31T05:11:29;17.55;;;16.38;;
53040;SDS011;39326;42.650;23.248;2023-07-31T05:13:55;19.15;;;17.85;;
53040;SDS011;39326;42.650;23.248;2023-07-31T05:16:20;19.55;;;17.95;;
53040;SDS011;39326;42.650;23.248;2023-07-31T05:18:46;19.08;;;17.67;;
53040;SDS011;39326;42.650;23.248;2023-07-31T05:21:11;17.25;;;15.98;;
53040;SDS011;39326;42.650;23.248;2023-07-31T05:23:36;18.63;;;17.23;;
53040;SDS011;39326;42.650;23.248;2023-07-31T05:26:03;17.63;;;16.42;;
53040;SDS011;39326;42.650;23.248;2023-07-31T05:28:33;14.95;;;13.70;;
53040;SDS011;39326;42.650;23.248;2023-07-31T05:30:59;14.27;;;13.27;;
53040;SDS011;39326;42.650;23.248;2023-07-31T05:33:26;16.25;;;15.15;;
53040;SDS011;39326;42.650;23.248;2023-07-31T05:35:51;15.82;;;14.82;;
53040;SDS011;39326;42.650;23.248;2023-07-31T05:38:17;14.40;;;13.40;;
53040;SDS011;39326;42.650;23.248;2023-07-31T05:40:43;15.00;;;14.00;;
53040;SDS011;39326;42.650;23.248;2023-07-31T05:43:08;13.57;;;12.68;;
53040;SDS011;39326;42.650;23.248;2023-07-31T05:45:34;14.27;;;13.27;;
53040;SDS011;39326;42.650;23.248;2023-07-31T05:48:00;14.57;;;13.55;;
53040;SDS011;39326;42.650;23.248;2023-07-31T05:50:25;13.77;;;12.77;;
53040;SDS011;39326;42.650;23.248;2023-07-31T05:52:51;13.18;;;12.30;;
53040;SDS011;39326;42.650;23.248;2023-07-31T05:55:17;12.70;;;11.80;;
53040;SDS011;39326;42.650;23.248;2023-07-31T05:57:42;13.20;;;12.38;;
53040;SDS011;39326;42.650;23.248;2023-07-31T06:00:08;12.43;;;11.55;;
53040;SDS011;39326;42.650;23.248;2023-07-31T06:02:34;11.70;;;10.90;;
53040;SDS011;39326;42.650;23.248;2023-07-31T06:05:02;11.23;;;10.52;;
53040;SDS011;39326;42.650;23.248;2023-07-31T06:07:29;12.25;;;11.45;;
53040;SDS011;39326;42.650;23.248;2023-07-31T06:09:54;10.85;;;10.05;;
53040;SDS011;39326;42.650;23.248;2023-07-31T06:12:20;9.88;;;9.18;;
53040;SDS011;39326;42.650;23.248;2023-07-31T06:14:45;9.25;;;8.55;;
53040;SDS011;39326;42.650;23.248;2023-07-31T06:17:11;9.70;;;8.90;;
53040;SDS011;39326;42.650;23.248;2023-07-31T06:19:36;7.63;;;7.13;;
53040;SDS011;39326;42.650;23.248;2023-07-31T06:22:02;7.20;;;6.60;;
53040;SDS011;39326;42.650;23.248;2023-07-31T06:24:28;7.13;;;6.63;;
53040;SDS011;39326;42.650;23.248;2023-07-31T06:26:54;5.95;;;5.53;;
53040;SDS011;39326;42.650;23.248;2023-07-31T06:29:20;5.60;;;5.15;;
53040;SDS011;39326;42.650;23.248;2023-07-31T06:31:46;5.22;;;4.90;;
53040;SDS011;39326;42.650;23.248;2023-07-31T06:34:11;5.63;;;5.28;;
53040;SDS011;39326;42.650;23.248;2023-07-31T06:36:36;6.13;;;5.72;;
53040;SDS011;39326;42.650;23.248;2023-07-31T06:39:02;6.13;;;5.72;;
53040;SDS011;39326;42.650;23.248;2023-07-31T06:41:28;5.70;;;5.30;;
53040;SDS011;39326;42.650;23.248;2023-07-31T06:43:54;5.38;;;4.97;;
53040;SDS011;39326;42.650;23.248;2023-07-31T06:46:19;6.07;;;5.57;;
53040;SDS011;39326;42.650;23.248;2023-07-31T06:48:44;5.38;;;4.95;;
53040;SDS011;39326;42.650;23.248;2023-07-31T06:51:10;6.00;;;5.50;;
53040;SDS011;39326;42.650;23.248;2023-07-31T06:53:35;4.60;;;4.30;;
53040;SDS011;39326;42.650;23.248;2023-07-31T06:56:01;5.03;;;4.65;;
53040;SDS011;39326;42.650;23.248;2023-07-31T06:58:26;5.25;;;4.85;;
53040;SDS011;39326;42.650;23.248;2023-07-31T07:00:51;5.03;;;4.72;;
53040;SDS011;39326;42.650;23.248;2023-07-31T07:03:20;5.40;;;5.00;;
53040;SDS011;39326;42.650;23.248;2023-07-31T07:05:46;4.90;;;4.50;;
53040;SDS011;39326;42.650;23.248;2023-07-31T07:08:11;4.07;;;3.78;;
53040;SDS011;39326;42.650;23.248;2023-07-31T07:10:36;3.78;;;3.45;;
53040;SDS011;39326;42.650;23.248;2023-07-31T07:13:02;4.10;;;3.70;;
53040;SDS011;39326;42.650;23.248;2023-07-31T07:15:27;3.60;;;3.30;;
53040;SDS011;39326;42.650;23.248;2023-07-31T07:17:53;3.80;;;3.55;;
53040;SDS011;39326;42.650;23.248;2023-07-31T07:20:19;180.38;;;25.67;;
53040;SDS011;39326;42.650;23.248;2023-07-31T07:22:45;134.25;;;19.88;;
53040;SDS011;39326;42.650;23.248;2023-07-31T07:25:10;5.60;;;3.17;;
53040;SDS011;39326;42.650;23.248;2023-07-31T07:27:36;3.63;;;3.33;;
53040;SDS011;39326;42.650;23.248;2023-07-31T07:30:01;3.70;;;3.40;;
53040;SDS011;39326;42.650;23.248;2023-07-31T07:32:27;3.47;;;3.17;;
53040;SDS011;39326;42.650;23.248;2023-07-31T07:34:52;3.70;;;3.40;;
53040;SDS011;39326;42.650;23.248;2023-07-31T07:37:18;3.13;;;2.92;;
53040;SDS011;39326;42.650;23.248;2023-07-31T07:39:43;3.17;;;2.97;;
53040;SDS011;39326;42.650;23.248;2023-07-31T07:42:09;4.75;;;3.20;;
53040;SDS011;39326;42.650;23.248;2023-07-31T07:44:35;3.40;;;3.10;;
53040;SDS011;39326;42.650;23.248;2023-07-31T07:47:00;4.45;;;3.70;;
53040;SDS011;39326;42.650;23.248;2023-07-31T07:49:25;2.90;;;2.65;;
53040;SDS011;39326;42.650;23.248;2023-07-31T07:51:51;3.22;;;2.80;;
53040;SDS011;39326;42.650;23.248;2023-07-31T07:54:16;3.08;;;2.83;;
53040;SDS011;39326;42.650;23.248;2023-07-31T07:56:42;3.10;;;2.80;;
53040;SDS011;39326;42.650;23.248;2023-07-31T07:59:08;3.22;;;3.03;;
53040;SDS011;39326;42.650;23.248;2023-07-31T08:01:33;3.53;;;3.17;;
53040;SDS011;39326;42.650;23.248;2023-07-31T08:03:59;3.17;;;2.83;;
53040;SDS011;39326;42.650;23.248;2023-07-31T08:06:24;2.95;;;2.75;;
53040;SDS011;39326;42.650;23.248;2023-07-31T08:08:50;3.17;;;2.80;;
53040;SDS011;39326;42.650;23.248;2023-07-31T08:11:15;2.92;;;2.67;;
53040;SDS011;39326;42.650;23.248;2023-07-31T08:13:40;3.33;;;2.90;;
53040;SDS011;39326;42.650;23.248;2023-07-31T08:16:06;2.92;;;2.72;;
53040;SDS011;39326;42.650;23.248;2023-07-31T08:18:32;2.88;;;2.67;;
53040;SDS011;39326;42.650;23.248;2023-07-31T08:20:58;3.22;;;3.03;;
53040;SDS011;39326;42.650;23.248;2023-07-31T08:23:23;3.65;;;2.92;;
53040;SDS011;39326;42.650;23.248;2023-07-31T08:25:49;3.03;;;2.83;;
53040;SDS011;39326;42.650;23.248;2023-07-31T08:28:15;2.83;;;2.60;;
53040;SDS011;39326;42.650;23.248;2023-07-31T08:30:41;3.50;;;2.90;;
53040;SDS011;39326;42.650;23.248;2023-07-31T08:33:07;3.55;;;3.25;;
53040;SDS011;39326;42.650;23.248;2023-07-31T08:35:32;4.65;;;2.78;;
53040;SDS011;39326;42.650;23.248;2023-07-31T08:37:58;3.08;;;2.80;;
53040;SDS011;39326;42.650;23.248;2023-07-31T08:40:23;3.00;;;2.80;;
53040;SDS011;39326;42.650;23.248;2023-07-31T08:42:50;2.75;;;2.55;;
53040;SDS011;39326;42.650;23.248;2023-07-31T08:45:18;5.15;;;4.65;;
53040;SDS011;39326;42.650;23.248;2023-07-31T08:47:45;3.20;;;2.90;;
53040;SDS011;39326;42.650;23.248;2023-07-31T08:50:16;4.50;;;3.17;;
53040;SDS011;39326;42.650;23.248;2023-07-31T08:52:45;3.67;;;3.05;;
53040;SDS011;39326;42.650;23.248;2023-07-31T08:55:11;3.00;;;2.80;;
53040;SDS011;39326;42.650;23.248;2023-07-31T08:57:37;2.67;;;2.47;;
53040;SDS011;39326;42.650;23.248;2023-07-31T09:00:06;3.35;;;3.05;;
53040;SDS011;39326;42.650;23.248;2023-07-31T09:02:56;3.10;;;2.90;;
53040;SDS011;39326;42.650;23.248;2023-07-31T09:05:27;10.07;;;2.85;;
53040;SDS011;39326;42.650;23.248;2023-07-31T09:07:54;2.72;;;2.53;;
53040;SDS011;39326;42.650;23.248;2023-07-31T09:10:21;3.38;;;2.25;;
53040;SDS011;39326;42.650;23.248;2023-07-31T09:12:46;2.95;;;2.60;;
53040;SDS011;39326;42.650;23.248;2023-07-31T09:15:13;3.03;;;2.78;;
53040;SDS011;39326;42.650;23.248;2023-07-31T09:17:39;2.90;;;2.70;;
53040;SDS011;39326;42.650;23.248;2023-07-31T09:22:42;2.97;;;2.78;;
53040;SDS011;39326;42.650;23.248;2023-07-31T09:25:22;3.10;;;2.80;;
53040;SDS011;39326;42.650;23.248;2023-07-31T09:27:59;3.00;;;2.80;;
53040;SDS011;39326;42.650;23.248;2023-07-31T09:30:28;3.15;;;2.83;;
53040;SDS011;39326;42.650;23.248;2023-07-31T09:33:01;3.28;;;2.78;;
53040;SDS011;39326;42.650;23.248;2023-07-31T09:35:32;2.90;;;2.70;;
53040;SDS011;39326;42.650;23.248;2023-07-31T09:38:06;4.72;;;2.95;;
53040;SDS011;39326;42.650;23.248;2023-07-31T09:40:39;3.15;;;2.95;;
53040;SDS011;39326;42.650;23.248;2023-07-31T09:43:07;3.45;;;3.25;;
53040;SDS011;39326;42.650;23.248;2023-07-31T09:45:36;3.50;;;3.05;;
53040;SDS011;39326;42.650;23.248;2023-07-31T09:48:02;3.20;;;3.00;;
53040;SDS011;39326;42.650;23.248;2023-07-31T09:50:29;3.53;;;2.90;;
53040;SDS011;39326;42.650;23.248;2023-07-31T09:52:55;3.20;;;3.00;;
53040;SDS011;39326;42.650;23.248;2023-07-31T09:55:20;3.08;;;2.85;;
53040;SDS011;39326;42.650;23.248;2023-07-31T09:57:49;4.78;;;3.75;;
53040;SDS011;39326;42.650;23.248;2023-07-31T10:00:15;2.92;;;2.60;;
53040;SDS011;39326;42.650;23.248;2023-07-31T10:02:44;2.90;;;2.70;;
53040;SDS011;39326;42.650;23.248;2023-07-31T10:05:11;3.45;;;2.72;;
53040;SDS011;39326;42.650;23.248;2023-07-31T10:07:39;3.65;;;2.53;;
53040;SDS011;39326;42.650;23.248;2023-07-31T10:10:09;2.90;;;2.70;;
53040;SDS011;39326;42.650;23.248;2023-07-31T10:12:35;5.07;;;2.60;;
53040;SDS011;39326;42.650;23.248;2023-07-31T10:15:02;2.47;;;2.38;;
53040;SDS011;39326;42.650;23.248;2023-07-31T10:17:27;2.47;;;2.30;;
53040;SDS011;39326;42.650;23.248;2023-07-31T10:19:54;2.35;;;2.20;;
53040;SDS011;39326;42.650;23.248;2023-07-31T10:22:22;2.72;;;2.28;;
53040;SDS011;39326;42.650;23.248;2023-07-31T10:24:48;2.80;;;2.60;;
53040;SDS011;39326;42.650;23.248;2023-07-31T10:27:17;3.17;;;2.80;;
53040;SDS011;39326;42.650;23.248;2023-07-31T10:29:43;4.30;;;2.30;;
53040;SDS011;39326;42.650;23.248;2023-07-31T10:32:12;2.38;;;2.28;;
53040;SDS011;39326;42.650;23.248;2023-07-31T10:34:40;2.75;;;2.55;;
53040;SDS011;39326;42.650;23.248;2023-07-31T10:37:25;2.35;;;2.15;;
53040;SDS011;39326;42.650;23.248;2023-07-31T10:39:59;3.45;;;2.25;;
53040;SDS011;39326;42.650;23.248;2023-07-31T10:42:32;2.60;;;2.40;;
53040;SDS011;39326;42.650;23.248;2023-07-31T10:45:00;2.80;;;2.60;;
53040;SDS011;39326;42.650;23.248;2023-07-31T10:47:30;3.22;;;2.50;;
53040;SDS011;39326;42.650;23.248;2023-07-31T10:52:46;2.83;;;2.38;;
53040;SDS011;39326;42.650;23.248;2023-07-31T10:55:30;1.88;;;1.77;;
53040;SDS011;39326;42.650;23.248;2023-07-31T10:58:04;2.13;;;1.98;;
53040;SDS011;39326;42.650;23.248;2023-07-31T11:00:36;2.42;;;1.90;;
53040;SDS011;39326;42.650;23.248;2023-07-31T11:03:09;2.25;;;2.15;;
53040;SDS011;39326;42.650;23.248;2023-07-31T11:05:52;2.00;;;1.90;;
53040;SDS011;39326;42.650;23.248;2023-07-31T11:08:30;2.03;;;1.80;;
53040;SDS011;39326;42.650;23.248;2023-07-31T11:16:07;1.95;;;1.85;;
53040;SDS011;39326;42.650;23.248;2023-07-31T11:18:33;2.22;;;2.03;;
53040;SDS011;39326;42.650;23.248;2023-07-31T11:20:58;2.97;;;2.28;;
53040;SDS011;39326;42.650;23.248;2023-07-31T11:23:24;3.28;;;2.05;;
53040;SDS011;39326;42.650;23.248;2023-07-31T11:25:50;2.10;;;1.88;;
53040;SDS011;39326;42.650;23.248;2023-07-31T11:28:16;2.30;;;1.88;;
53040;SDS011;39326;42.650;23.248;2023-07-31T11:30:43;4.25;;;2.20;;
53040;SDS011;39326;42.650;23.248;2023-07-31T11:33:10;2.00;;;1.80;;
53040;SDS011;39326;42.650;23.248;2023-07-31T11:35:44;2.30;;;2.20;;
53040;SDS011;39326;42.650;23.248;2023-07-31T11:38:21;2.20;;;2.10;;
53040;SDS011;39326;42.650;23.248;2023-07-31T11:40:49;2.60;;;2.40;;
53040;SDS011;39326;42.650;23.248;2023-07-31T11:43:15;2.72;;;2.53;;
53040;SDS011;39326;42.650;23.248;2023-07-31T11:45:44;2.58;;;2.40;;
53040;SDS011;39326;42.650;23.248;2023-07-31T11:48:18;2.58;;;2.45;;
53040;SDS011;39326;42.650;23.248;2023-07-31T11:50:52;2.60;;;2.40;;
53040;SDS011;39326;42.650;23.248;2023-07-31T11:53:25;2.83;;;2.58;;
53040;SDS011;39326;42.650;23.248;2023-07-31T11:55:59;2.67;;;2.47;;
53040;SDS011;39326;42.650;23.248;2023-07-31T11:58:25;3.78;;;2.67;;
53040;SDS011;39326;42.650;23.248;2023-07-31T12:00:52;2.70;;;2.47;;
53040;SDS011;39326;42.650;23.248;2023-07-31T12:03:18;3.40;;;2.30;;
53040;SDS011;39326;42.650;23.248;2023-07-31T12:05:46;2.88;;;2.67;;
53040;SDS011;39326;42.650;23.248;2023-07-31T12:08:12;3.22;;;2.97;;
53040;SDS011;39326;42.650;23.248;2023-07-31T12:10:38;4.53;;;4.22;;
53040;SDS011;39326;42.650;23.248;2023-07-31T12:13:07;4.20;;;3.90;;
53040;SDS011;39326;42.650;23.248;2023-07-31T12:15:42;3.83;;;3.63;;
53040;SDS011;39326;42.650;23.248;2023-07-31T12:18:12;3.70;;;3.50;;
53040;SDS011;39326;42.650;23.248;2023-07-31T12:20:42;3.92;;;3.65;;
53040;SDS011;39326;42.650;23.248;2023-07-31T12:25:44;3.60;;;3.35;;
53040;SDS011;39326;42.650;23.248;2023-07-31T12:28:10;4.78;;;4.47;;
53040;SDS011;39326;42.650;23.248;2023-07-31T12:30:39;5.75;;;5.38;;
53040;SDS011;39326;42.650;23.248;2023-07-31T12:33:12;5.90;;;5.60;;
53040;SDS011;39326;42.650;23.248;2023-07-31T12:35:46;6.82;;;6.43;;
53040;SDS011;39326;42.650;23.248;2023-07-31T12:38:12;6.45;;;6.05;;
53040;SDS011;39326;42.650;23.248;2023-07-31T12:40:39;5.85;;;5.55;;
53040;SDS011;39326;42.650;23.248;2023-07-31T12:43:05;6.93;;;6.43;;
53040;SDS011;39326;42.650;23.248;2023-07-31T12:45:31;6.25;;;5.93;;
53040;SDS011;39326;42.650;23.248;2023-07-31T12:48:00;6.72;;;6.32;;
53040;SDS011;39326;42.650;23.248;2023-07-31T12:50:26;6.65;;;6.25;;
53040;SDS011;39326;42.650;23.248;2023-07-31T12:52:55;6.85;;;6.35;;
53040;SDS011;39326;42.650;23.248;2023-07-31T12:55:21;6.88;;;6.47;;
53040;SDS011;39326;42.650;23.248;2023-07-31T12:57:47;6.43;;;6.03;;
53040;SDS011;39326;42.650;23.248;2023-07-31T13:00:13;7.15;;;6.65;;
53040;SDS011;39326;42.650;23.248;2023-07-31T13:02:39;6.63;;;6.22;;
53040;SDS011;39326;42.650;23.248;2023-07-31T13:05:04;6.78;;;6.28;;
53040;SDS011;39326;42.650;23.248;2023-07-31T13:07:30;7.18;;;6.68;;
53040;SDS011;39326;42.650;23.248;2023-07-31T13:09:55;6.75;;;6.35;;
53040;SDS011;39326;42.650;23.248;2023-07-31T13:12:21;6.60;;;6.20;;
53040;SDS011;39326;42.650;23.248;2023-07-31T13:14:46;7.18;;;6.78;;
53040;SDS011;39326;42.650;23.248;2023-07-31T13:17:12;6.40;;;6.00;;
53040;SDS011;39326;42.650;23.248;2023-07-31T13:19:37;7.70;;;7.20;;
53040;SDS011;39326;42.650;23.248;2023-07-31T13:22:02;6.55;;;6.15;;
53040;SDS011;39326;42.650;23.248;2023-07-31T13:24:29;6.32;;;5.97;;
53040;SDS011;39326;42.650;23.248;2023-07-31T13:26:55;6.30;;;5.93;;
53040;SDS011;39326;42.650;23.248;2023-07-31T13:29:20;5.90;;;5.60;;
53040;SDS011;39326;42.650;23.248;2023-07-31T13:31:46;6.30;;;5.90;;
53040;SDS011;39326;42.650;23.248;2023-07-31T13:34:12;5.57;;;5.20;;
53040;SDS011;39326;42.650;23.248;2023-07-31T13:36:38;5.25;;;4.95;;
53040;SDS011;39326;42.650;23.248;2023-07-31T13:39:03;4.68;;;4.38;;
53040;SDS011;39326;42.650;23.248;2023-07-31T13:41:29;4.60;;;4.28;;
53040;SDS011;39326;42.650;23.248;2023-07-31T13:43:54;4.07;;;3.88;;
53040;SDS011;39326;42.650;23.248;2023-07-31T13:46:20;4.63;;;4.20;;
53040;SDS011;39326;42.650;23.248;2023-07-31T13:48:45;4.55;;;4.25;;
53040;SDS011;39326;42.650;23.248;2023-07-31T13:51:10;4.88;;;4.32;;
53040;SDS011;39326;42.650;23.248;2023-07-31T13:53:36;4.30;;;4.00;;
53040;SDS011;39326;42.650;23.248;2023-07-31T13:56:01;3.92;;;3.72;;
53040;SDS011;39326;42.650;23.248;2023-07-31T13:58:27;4.82;;;4.38;;
53040;SDS011;39326;42.650;23.248;2023-07-31T14:00:52;4.50;;;4.20;;
53040;SDS011;39326;42.650;23.248;2023-07-31T14:03:18;4.32;;;4.03;;
53040;SDS011;39326;42.650;23.248;2023-07-31T14:05:43;4.40;;;4.00;;
53040;SDS011;39326;42.650;23.248;2023-07-31T14:08:08;4.55;;;4.32;;
53040;SDS011;39326;42.650;23.248;2023-07-31T14:10:34;4.78;;;4.47;;
53040;SDS011;39326;42.650;23.248;2023-07-31T14:12:59;4.53;;;4.22;;
53040;SDS011;39326;42.650;23.248;2023-07-31T14:15:25;4.88;;;4.47;;
53040;SDS011;39326;42.650;23.248;2023-07-31T14:17:50;4.70;;;4.40;;
53040;SDS011;39326;42.650;23.248;2023-07-31T14:20:15;4.10;;;3.80;;
53040;SDS011;39326;42.650;23.248;2023-07-31T14:22:41;4.85;;;4.55;;
53040;SDS011;39326;42.650;23.248;2023-07-31T14:25:06;4.55;;;4.25;;
53040;SDS011;39326;42.650;23.248;2023-07-31T14:27:35;3.95;;;3.67;;
53040;SDS011;39326;42.650;23.248;2023-07-31T14:30:00;4.07;;;3.78;;
53040;SDS011;39326;42.650;23.248;2023-07-31T14:32:26;15.13;;;4.60;;
53040;SDS011;39326;42.650;23.248;2023-07-31T14:34:51;4.45;;;3.90;;
53040;SDS011;39326;42.650;23.248;2023-07-31T14:37:17;4.05;;;3.75;;
53040;SDS011;39326;42.650;23.248;2023-07-31T14:39:42;4.47;;;4.18;;
53040;SDS011;39326;42.650;23.248;2023-07-31T14:42:11;4.40;;;4.00;;
53040;SDS011;39326;42.650;23.248;2023-07-31T14:44:36;4.13;;;3.78;;